sensor_id;sensor_type;location;lat;lon;timestamp;P1;durP1;ratioP1;P2;durP2;ratioP2
59854;SDS011;45732;52.850;6.896;2023-10-31T00:02:13;18.75;;;13.48;;
59854;SDS011;45732;52.850;6.896;2023-10-31T00:04:39;17.75;;;14.48;;
59854;SDS011;45732;52.850;6.896;2023-10-31T00:07:04;19.25;;;14.45;;
59854;SDS011;45732;52.850;6.896;2023-10-31T00:09:30;19.55;;;14.93;;
59854;SDS011;45732;52.850;6.896;2023-10-31T00:11:57;16.58;;;13.90;;
59854;SDS011;45732;52.850;6.896;2023-10-31T00:14:23;19.10;;;13.98;;
59854;SDS011;45732;52.850;6.896;2023-10-31T00:16:49;17.67;;;14.70;;
59854;SDS011;45732;52.850;6.896;2023-10-31T00:19:14;16.58;;;13.57;;
59854;SDS011;45732;52.850;6.896;2023-10-31T00:21:40;18.90;;;14.48;;
59854;SDS011;45732;52.850;6.896;2023-10-31T00:24:06;20.42;;;15.15;;
59854;SDS011;45732;52.850;6.896;2023-10-31T00:26:32;17.48;;;14.35;;
59854;SDS011;45732;52.850;6.896;2023-10-31T00:28:57;18.75;;;13.40;;
59854;SDS011;45732;52.850;6.896;2023-10-31T00:31:23;20.23;;;15.20;;
59854;SDS011;45732;52.850;6.896;2023-10-31T00:33:49;17.20;;;14.00;;
59854;SDS011;45732;52.850;6.896;2023-10-31T00:36:14;20.67;;;15.80;;
59854;SDS011;45732;52.850;6.896;2023-10-31T00:38:40;17.88;;;14.77;;
59854;SDS011;45732;52.850;6.896;2023-10-31T00:41:06;20.85;;;15.77;;
59854;SDS011;45732;52.850;6.896;2023-10-31T00:43:32;21.08;;;16.50;;
59854;SDS011;45732;52.850;6.896;2023-10-31T00:45:58;19.08;;;15.77;;
59854;SDS011;45732;52.850;6.896;2023-10-31T00:48:23;20.00;;;15.88;;
59854;SDS011;45732;52.850;6.896;2023-10-31T00:50:49;21.42;;;15.93;;
59854;SDS011;45732;52.850;6.896;2023-10-31T00:53:15;20.92;;;16.13;;
59854;SDS011;45732;52.850;6.896;2023-10-31T00:55:41;23.83;;;16.60;;
59854;SDS011;45732;52.850;6.896;2023-10-31T00:58:07;19.98;;;16.77;;
59854;SDS011;45732;52.850;6.896;2023-10-31T01:00:33;21.98;;;16.98;;
59854;SDS011;45732;52.850;6.896;2023-10-31T01:02:59;23.10;;;16.50;;
59854;SDS011;45732;52.850;6.896;2023-10-31T01:05:25;23.00;;;17.50;;
59854;SDS011;45732;52.850;6.896;2023-10-31T01:07:53;23.75;;;17.80;;
59854;SDS011;45732;52.850;6.896;2023-10-31T01:10:19;23.15;;;17.65;;
59854;SDS011;45732;52.850;6.896;2023-10-31T01:12:45;23.13;;;16.75;;
59854;SDS011;45732;52.850;6.896;2023-10-31T01:15:11;22.20;;;17.42;;
59854;SDS011;45732;52.850;6.896;2023-10-31T01:17:36;23.52;;;17.13;;
59854;SDS011;45732;52.850;6.896;2023-10-31T01:20:02;19.20;;;16.45;;
59854;SDS011;45732;52.850;6.896;2023-10-31T01:22:28;21.67;;;16.80;;
59854;SDS011;45732;52.850;6.896;2023-10-31T01:24:54;21.08;;;16.63;;
59854;SDS011;45732;52.850;6.896;2023-10-31T01:27:19;25.52;;;17.63;;
59854;SDS011;45732;52.850;6.896;2023-10-31T01:29:45;22.35;;;16.48;;
59854;SDS011;45732;52.850;6.896;2023-10-31T01:32:11;22.77;;;16.85;;
59854;SDS011;45732;52.850;6.896;2023-10-31T01:34:37;23.08;;;16.95;;
59854;SDS011;45732;52.850;6.896;2023-10-31T01:37:03;19.88;;;16.50;;
59854;SDS011;45732;52.850;6.896;2023-10-31T01:39:28;19.30;;;15.02;;
59854;SDS011;45732;52.850;6.896;2023-10-31T01:41:54;18.00;;;14.98;;
59854;SDS011;45732;52.850;6.896;2023-10-31T01:44:20;18.38;;;14.88;;
59854;SDS011;45732;52.850;6.896;2023-10-31T01:46:46;19.38;;;15.27;;
59854;SDS011;45732;52.850;6.896;2023-10-31T01:49:12;18.02;;;15.63;;
59854;SDS011;45732;52.850;6.896;2023-10-31T01:51:39;10.30;;;7.30;;
59854;SDS011;45732;52.850;6.896;2023-10-31T01:54:06;6.22;;;3.63;;
59854;SDS011;45732;52.850;6.896;2023-10-31T01:56:33;3.63;;;1.50;;
59854;SDS011;45732;52.850;6.896;2023-10-31T01:58:59;2.88;;;0.90;;
59854;SDS011;45732;52.850;6.896;2023-10-31T02:01:26;0.95;;;0.52;;
59854;SDS011;45732;52.850;6.896;2023-10-31T02:03:53;1.65;;;0.50;;
59854;SDS011;45732;52.850;6.896;2023-10-31T02:06:19;1.67;;;0.35;;
59854;SDS011;45732;52.850;6.896;2023-10-31T02:08:44;0.77;;;0.30;;
59854;SDS011;45732;52.850;6.896;2023-10-31T02:11:12;2.53;;;0.22;;
59854;SDS011;45732;52.850;6.896;2023-10-31T02:13:38;1.20;;;0.40;;
59854;SDS011;45732;52.850;6.896;2023-10-31T02:16:03;0.20;;;0.20;;
59854;SDS011;45732;52.850;6.896;2023-10-31T02:18:29;0.35;;;0.20;;
59854;SDS011;45732;52.850;6.896;2023-10-31T02:20:55;0.55;;;0.28;;
59854;SDS011;45732;52.850;6.896;2023-10-31T02:23:21;2.28;;;0.50;;
59854;SDS011;45732;52.850;6.896;2023-10-31T02:25:46;2.38;;;0.57;;
59854;SDS011;45732;52.850;6.896;2023-10-31T02:28:12;1.27;;;0.38;;
59854;SDS011;45732;52.850;6.896;2023-10-31T02:30:38;2.35;;;0.40;;
59854;SDS011;45732;52.850;6.896;2023-10-31T02:33:03;1.08;;;0.40;;
59854;SDS011;45732;52.850;6.896;2023-10-31T02:35:29;0.90;;;0.40;;
59854;SDS011;45732;52.850;6.896;2023-10-31T02:37:55;2.75;;;0.50;;
59854;SDS011;45732;52.850;6.896;2023-10-31T02:40:21;3.22;;;0.73;;
59854;SDS011;45732;52.850;6.896;2023-10-31T02:42:47;1.85;;;0.63;;
59854;SDS011;45732;52.850;6.896;2023-10-31T02:45:13;1.17;;;0.47;;
59854;SDS011;45732;52.850;6.896;2023-10-31T02:47:39;2.30;;;0.60;;
59854;SDS011;45732;52.850;6.896;2023-10-31T02:50:05;4.05;;;0.88;;
59854;SDS011;45732;52.850;6.896;2023-10-31T02:52:31;1.92;;;0.68;;
59854;SDS011;45732;52.850;6.896;2023-10-31T02:54:57;1.77;;;0.50;;
59854;SDS011;45732;52.850;6.896;2023-10-31T02:57:22;3.47;;;0.88;;
59854;SDS011;45732;52.850;6.896;2023-10-31T02:59:48;2.75;;;0.73;;
59854;SDS011;45732;52.850;6.896;2023-10-31T03:02:14;4.13;;;0.82;;
59854;SDS011;45732;52.850;6.896;2023-10-31T03:04:39;2.55;;;0.70;;
59854;SDS011;45732;52.850;6.896;2023-10-31T03:07:05;2.78;;;0.60;;
59854;SDS011;45732;52.850;6.896;2023-10-31T03:09:31;1.85;;;0.52;;
59854;SDS011;45732;52.850;6.896;2023-10-31T03:11:56;3.10;;;0.75;;
59854;SDS011;45732;52.850;6.896;2023-10-31T03:14:22;4.15;;;0.77;;
59854;SDS011;45732;52.850;6.896;2023-10-31T03:16:48;4.25;;;0.90;;
59854;SDS011;45732;52.850;6.896;2023-10-31T03:19:13;3.70;;;0.82;;
59854;SDS011;45732;52.850;6.896;2023-10-31T03:21:39;3.22;;;0.80;;
59854;SDS011;45732;52.850;6.896;2023-10-31T03:24:04;5.22;;;1.05;;
59854;SDS011;45732;52.850;6.896;2023-10-31T03:26:30;1.50;;;0.73;;
59854;SDS011;45732;52.850;6.896;2023-10-31T03:28:56;2.22;;;1.10;;
59854;SDS011;45732;52.850;6.896;2023-10-31T03:31:22;4.07;;;1.40;;
59854;SDS011;45732;52.850;6.896;2023-10-31T03:33:48;2.85;;;1.40;;
59854;SDS011;45732;52.850;6.896;2023-10-31T03:36:15;4.78;;;1.50;;
59854;SDS011;45732;52.850;6.896;2023-10-31T03:38:41;4.43;;;1.60;;
59854;SDS011;45732;52.850;6.896;2023-10-31T03:41:07;6.15;;;1.90;;
59854;SDS011;45732;52.850;6.896;2023-10-31T03:43:32;4.93;;;2.22;;
59854;SDS011;45732;52.850;6.896;2023-10-31T03:45:58;6.15;;;2.40;;
59854;SDS011;45732;52.850;6.896;2023-10-31T03:48:24;6.40;;;2.40;;
59854;SDS011;45732;52.850;6.896;2023-10-31T03:50:50;7.28;;;2.60;;
59854;SDS011;45732;52.850;6.896;2023-10-31T03:53:16;6.28;;;2.50;;
59854;SDS011;45732;52.850;6.896;2023-10-31T03:55:42;6.68;;;2.47;;
59854;SDS011;45732;52.850;6.896;2023-10-31T03:58:07;6.28;;;2.30;;
59854;SDS011;45732;52.850;6.896;2023-10-31T04:00:33;6.88;;;2.38;;
59854;SDS011;45732;52.850;6.896;2023-10-31T04:02:59;6.65;;;2.33;;
59854;SDS011;45732;52.850;6.896;2023-10-31T04:05:24;7.03;;;2.30;;
59854;SDS011;45732;52.850;6.896;2023-10-31T04:07:50;6.28;;;2.42;;
59854;SDS011;45732;52.850;6.896;2023-10-31T04:10:17;6.18;;;2.05;;
59854;SDS011;45732;52.850;6.896;2023-10-31T04:12:44;6.07;;;2.10;;
59854;SDS011;45732;52.850;6.896;2023-10-31T04:15:10;6.65;;;2.17;;
59854;SDS011;45732;52.850;6.896;2023-10-31T04:17:37;5.15;;;1.92;;
59854;SDS011;45732;52.850;6.896;2023-10-31T04:20:03;8.57;;;2.60;;
59854;SDS011;45732;52.850;6.896;2023-10-31T04:22:29;5.82;;;2.10;;
59854;SDS011;45732;52.850;6.896;2023-10-31T04:24:55;6.60;;;2.40;;
59854;SDS011;45732;52.850;6.896;2023-10-31T04:27:21;5.30;;;2.50;;
59854;SDS011;45732;52.850;6.896;2023-10-31T04:29:47;7.25;;;2.92;;
59854;SDS011;45732;52.850;6.896;2023-10-31T04:32:13;4.75;;;2.20;;
59854;SDS011;45732;52.850;6.896;2023-10-31T04:34:38;7.03;;;2.65;;
59854;SDS011;45732;52.850;6.896;2023-10-31T04:37:04;4.90;;;2.70;;
59854;SDS011;45732;52.850;6.896;2023-10-31T04:39:30;6.75;;;2.00;;
59854;SDS011;45732;52.850;6.896;2023-10-31T04:41:56;4.75;;;1.90;;
59854;SDS011;45732;52.850;6.896;2023-10-31T04:44:22;5.78;;;1.90;;
59854;SDS011;45732;52.850;6.896;2023-10-31T04:46:47;3.40;;;1.75;;
59854;SDS011;45732;52.850;6.896;2023-10-31T04:49:13;5.05;;;1.88;;
59854;SDS011;45732;52.850;6.896;2023-10-31T04:51:40;3.80;;;1.38;;
59854;SDS011;45732;52.850;6.896;2023-10-31T04:54:06;2.72;;;1.15;;
59854;SDS011;45732;52.850;6.896;2023-10-31T04:56:32;3.63;;;1.30;;
59854;SDS011;45732;52.850;6.896;2023-10-31T04:58:58;1.85;;;0.90;;
59854;SDS011;45732;52.850;6.896;2023-10-31T05:01:24;4.07;;;2.25;;
59854;SDS011;45732;52.850;6.896;2023-10-31T05:03:49;2.88;;;1.00;;
59854;SDS011;45732;52.850;6.896;2023-10-31T05:06:19;4.22;;;1.77;;
59854;SDS011;45732;52.850;6.896;2023-10-31T05:08:45;4.35;;;1.55;;
59854;SDS011;45732;52.850;6.896;2023-10-31T05:11:11;3.75;;;1.23;;
59854;SDS011;45732;52.850;6.896;2023-10-31T05:13:38;2.60;;;1.10;;
59854;SDS011;45732;52.850;6.896;2023-10-31T05:16:04;3.15;;;1.00;;
59854;SDS011;45732;52.850;6.896;2023-10-31T05:18:30;4.03;;;1.95;;
59854;SDS011;45732;52.850;6.896;2023-10-31T05:20:56;3.97;;;1.35;;
59854;SDS011;45732;52.850;6.896;2023-10-31T05:23:22;3.45;;;1.30;;
59854;SDS011;45732;52.850;6.896;2023-10-31T05:25:47;3.80;;;1.00;;
59854;SDS011;45732;52.850;6.896;2023-10-31T05:28:13;4.78;;;1.40;;
59854;SDS011;45732;52.850;6.896;2023-10-31T05:30:38;2.60;;;1.13;;
59854;SDS011;45732;52.850;6.896;2023-10-31T05:33:04;3.38;;;1.25;;
59854;SDS011;45732;52.850;6.896;2023-10-31T05:35:30;5.60;;;1.40;;
59854;SDS011;45732;52.850;6.896;2023-10-31T05:37:56;4.63;;;1.00;;
59854;SDS011;45732;52.850;6.896;2023-10-31T05:40:21;3.25;;;1.00;;
59854;SDS011;45732;52.850;6.896;2023-10-31T05:42:49;5.72;;;1.02;;
59854;SDS011;45732;52.850;6.896;2023-10-31T05:45:15;5.82;;;1.67;;
59854;SDS011;45732;52.850;6.896;2023-10-31T05:47:41;5.38;;;1.20;;
59854;SDS011;45732;52.850;6.896;2023-10-31T05:50:07;5.18;;;1.52;;
59854;SDS011;45732;52.850;6.896;2023-10-31T05:52:33;6.07;;;2.22;;
59854;SDS011;45732;52.850;6.896;2023-10-31T05:54:59;3.95;;;1.40;;
59854;SDS011;45732;52.850;6.896;2023-10-31T05:57:25;5.60;;;1.92;;
59854;SDS011;45732;52.850;6.896;2023-10-31T05:59:50;5.07;;;1.60;;
59854;SDS011;45732;52.850;6.896;2023-10-31T06:02:16;5.75;;;1.75;;
59854;SDS011;45732;52.850;6.896;2023-10-31T06:04:42;5.50;;;1.63;;
59854;SDS011;45732;52.850;6.896;2023-10-31T06:07:07;4.45;;;1.55;;
59854;SDS011;45732;52.850;6.896;2023-10-31T06:09:33;5.72;;;1.75;;
59854;SDS011;45732;52.850;6.896;2023-10-31T06:11:59;5.63;;;1.88;;
59854;SDS011;45732;52.850;6.896;2023-10-31T06:14:25;4.97;;;1.48;;
59854;SDS011;45732;52.850;6.896;2023-10-31T06:16:51;3.65;;;1.40;;
59854;SDS011;45732;52.850;6.896;2023-10-31T06:19:17;4.55;;;1.75;;
59854;SDS011;45732;52.850;6.896;2023-10-31T06:21:43;3.97;;;1.40;;
59854;SDS011;45732;52.850;6.896;2023-10-31T06:24:08;4.38;;;1.45;;
59854;SDS011;45732;52.850;6.896;2023-10-31T06:26:34;5.20;;;1.42;;
59854;SDS011;45732;52.850;6.896;2023-10-31T06:29:00;3.92;;;1.50;;
59854;SDS011;45732;52.850;6.896;2023-10-31T06:31:26;4.97;;;1.80;;
59854;SDS011;45732;52.850;6.896;2023-10-31T06:33:52;4.72;;;2.17;;
59854;SDS011;45732;52.850;6.896;2023-10-31T06:36:17;5.03;;;1.85;;
59854;SDS011;45732;52.850;6.896;2023-10-31T06:38:43;5.85;;;1.90;;
59854;SDS011;45732;52.850;6.896;2023-10-31T06:41:09;4.88;;;1.70;;
59854;SDS011;45732;52.850;6.896;2023-10-31T06:43:34;3.95;;;1.80;;
59854;SDS011;45732;52.850;6.896;2023-10-31T06:46:00;5.78;;;1.90;;
59854;SDS011;45732;52.850;6.896;2023-10-31T06:48:28;5.45;;;1.92;;
59854;SDS011;45732;52.850;6.896;2023-10-31T06:50:53;5.30;;;2.17;;
59854;SDS011;45732;52.850;6.896;2023-10-31T06:53:19;6.20;;;1.90;;
59854;SDS011;45732;52.850;6.896;2023-10-31T06:55:45;6.57;;;2.22;;
59854;SDS011;45732;52.850;6.896;2023-10-31T06:58:10;4.68;;;1.90;;
59854;SDS011;45732;52.850;6.896;2023-10-31T07:00:36;5.55;;;2.00;;
59854;SDS011;45732;52.850;6.896;2023-10-31T07:03:03;5.80;;;2.05;;
59854;SDS011;45732;52.850;6.896;2023-10-31T07:05:34;5.93;;;2.42;;
59854;SDS011;45732;52.850;6.896;2023-10-31T07:08:00;4.78;;;2.08;;
59854;SDS011;45732;52.850;6.896;2023-10-31T07:10:27;6.90;;;2.15;;
59854;SDS011;45732;52.850;6.896;2023-10-31T07:12:53;5.05;;;1.77;;
59854;SDS011;45732;52.850;6.896;2023-10-31T07:15:19;5.13;;;1.95;;
59854;SDS011;45732;52.850;6.896;2023-10-31T07:17:46;5.55;;;2.10;;
59854;SDS011;45732;52.850;6.896;2023-10-31T07:20:12;8.30;;;2.40;;
59854;SDS011;45732;52.850;6.896;2023-10-31T07:22:37;6.15;;;2.13;;
59854;SDS011;45732;52.850;6.896;2023-10-31T07:25:05;7.60;;;2.70;;
59854;SDS011;45732;52.850;6.896;2023-10-31T07:27:31;7.20;;;2.95;;
59854;SDS011;45732;52.850;6.896;2023-10-31T07:29:58;7.65;;;2.80;;
59854;SDS011;45732;52.850;6.896;2023-10-31T07:32:24;8.98;;;2.88;;
59854;SDS011;45732;52.850;6.896;2023-10-31T07:34:51;6.97;;;2.83;;
59854;SDS011;45732;52.850;6.896;2023-10-31T07:37:17;6.43;;;2.80;;
59854;SDS011;45732;52.850;6.896;2023-10-31T07:39:42;7.47;;;3.50;;
59854;SDS011;45732;52.850;6.896;2023-10-31T07:42:08;7.05;;;3.20;;
59854;SDS011;45732;52.850;6.896;2023-10-31T07:44:34;8.65;;;3.28;;
59854;SDS011;45732;52.850;6.896;2023-10-31T07:47:00;7.72;;;4.10;;
59854;SDS011;45732;52.850;6.896;2023-10-31T07:49:25;7.93;;;3.60;;
59854;SDS011;45732;52.850;6.896;2023-10-31T07:51:51;7.10;;;4.07;;
59854;SDS011;45732;52.850;6.896;2023-10-31T07:54:17;9.95;;;4.30;;
59854;SDS011;45732;52.850;6.896;2023-10-31T07:56:42;8.93;;;4.70;;
59854;SDS011;45732;52.850;6.896;2023-10-31T07:59:08;9.70;;;4.57;;
59854;SDS011;45732;52.850;6.896;2023-10-31T08:01:34;8.75;;;4.60;;
59854;SDS011;45732;52.850;6.896;2023-10-31T08:04:00;9.20;;;4.38;;
59854;SDS011;45732;52.850;6.896;2023-10-31T08:06:26;11.50;;;5.28;;
59854;SDS011;45732;52.850;6.896;2023-10-31T08:08:52;8.55;;;4.68;;
59854;SDS011;45732;52.850;6.896;2023-10-31T08:11:17;9.98;;;4.63;;
59854;SDS011;45732;52.850;6.896;2023-10-31T08:13:43;12.43;;;5.10;;
59854;SDS011;45732;52.850;6.896;2023-10-31T08:16:09;9.45;;;4.43;;
59854;SDS011;45732;52.850;6.896;2023-10-31T08:18:35;7.78;;;5.07;;
59854;SDS011;45732;52.850;6.896;2023-10-31T08:21:03;8.70;;;4.10;;
59854;SDS011;45732;52.850;6.896;2023-10-31T08:23:29;8.60;;;4.55;;
59854;SDS011;45732;52.850;6.896;2023-10-31T08:25:55;7.63;;;4.50;;
59854;SDS011;45732;52.850;6.896;2023-10-31T08:28:21;6.93;;;3.95;;
59854;SDS011;45732;52.850;6.896;2023-10-31T08:30:46;7.65;;;3.50;;
59854;SDS011;45732;52.850;6.896;2023-10-31T08:33:12;7.75;;;3.30;;
59854;SDS011;45732;52.850;6.896;2023-10-31T08:35:39;7.18;;;3.25;;
59854;SDS011;45732;52.850;6.896;2023-10-31T08:38:05;7.13;;;3.00;;
59854;SDS011;45732;52.850;6.896;2023-10-31T08:40:30;6.70;;;2.50;;
59854;SDS011;45732;52.850;6.896;2023-10-31T08:42:56;9.35;;;2.67;;
59854;SDS011;45732;52.850;6.896;2023-10-31T08:45:22;4.85;;;2.00;;
59854;SDS011;45732;52.850;6.896;2023-10-31T08:47:48;7.28;;;2.20;;
59854;SDS011;45732;52.850;6.896;2023-10-31T08:50:13;8.85;;;1.95;;
59854;SDS011;45732;52.850;6.896;2023-10-31T08:52:40;5.53;;;1.70;;
59854;SDS011;45732;52.850;6.896;2023-10-31T08:55:06;5.32;;;1.88;;
59854;SDS011;45732;52.850;6.896;2023-10-31T08:57:32;6.80;;;2.20;;
59854;SDS011;45732;52.850;6.896;2023-10-31T08:59:59;5.97;;;1.75;;
59854;SDS011;45732;52.850;6.896;2023-10-31T09:02:25;5.85;;;1.70;;
59854;SDS011;45732;52.850;6.896;2023-10-31T09:04:50;5.75;;;1.58;;
59854;SDS011;45732;52.850;6.896;2023-10-31T09:07:16;4.50;;;1.10;;
59854;SDS011;45732;52.850;6.896;2023-10-31T09:09:42;5.07;;;1.33;;
59854;SDS011;45732;52.850;6.896;2023-10-31T09:12:07;5.47;;;1.30;;
59854;SDS011;45732;52.850;6.896;2023-10-31T09:14:34;6.90;;;1.30;;
59854;SDS011;45732;52.850;6.896;2023-10-31T09:17:00;3.05;;;1.27;;
59854;SDS011;45732;52.850;6.896;2023-10-31T09:19:26;5.45;;;1.30;;
59854;SDS011;45732;52.850;6.896;2023-10-31T09:21:52;6.35;;;0.80;;
59854;SDS011;45732;52.850;6.896;2023-10-31T09:24:18;6.55;;;1.10;;
59854;SDS011;45732;52.850;6.896;2023-10-31T09:26:43;5.38;;;0.95;;
59854;SDS011;45732;52.850;6.896;2023-10-31T09:29:12;3.47;;;0.90;;
59854;SDS011;45732;52.850;6.896;2023-10-31T09:31:38;5.18;;;0.90;;
59854;SDS011;45732;52.850;6.896;2023-10-31T09:34:04;7.38;;;1.40;;
59854;SDS011;45732;52.850;6.896;2023-10-31T09:36:33;4.75;;;0.73;;
59854;SDS011;45732;52.850;6.896;2023-10-31T09:39:01;4.35;;;0.93;;
59854;SDS011;45732;52.850;6.896;2023-10-31T09:41:28;3.20;;;0.65;;
59854;SDS011;45732;52.850;6.896;2023-10-31T09:43:54;2.50;;;0.75;;
59854;SDS011;45732;52.850;6.896;2023-10-31T09:46:21;4.20;;;1.00;;
59854;SDS011;45732;52.850;6.896;2023-10-31T09:48:47;3.33;;;0.65;;
59854;SDS011;45732;52.850;6.896;2023-10-31T09:51:14;4.63;;;0.82;;
59854;SDS011;45732;52.850;6.896;2023-10-31T09:53:40;2.75;;;0.70;;
59854;SDS011;45732;52.850;6.896;2023-10-31T09:56:09;3.28;;;0.70;;
59854;SDS011;45732;52.850;6.896;2023-10-31T09:58:36;4.57;;;0.77;;
59854;SDS011;45732;52.850;6.896;2023-10-31T10:01:02;2.72;;;0.60;;
59854;SDS011;45732;52.850;6.896;2023-10-31T10:03:28;3.65;;;0.65;;
59854;SDS011;45732;52.850;6.896;2023-10-31T10:05:54;3.30;;;0.60;;
59854;SDS011;45732;52.850;6.896;2023-10-31T10:08:20;3.05;;;0.63;;
59854;SDS011;45732;52.850;6.896;2023-10-31T10:10:47;2.20;;;0.70;;
59854;SDS011;45732;52.850;6.896;2023-10-31T10:13:16;3.53;;;0.50;;
59854;SDS011;45732;52.850;6.896;2023-10-31T10:15:46;2.90;;;0.60;;
59854;SDS011;45732;52.850;6.896;2023-10-31T10:18:33;3.03;;;0.65;;
59854;SDS011;45732;52.850;6.896;2023-10-31T10:21:02;3.60;;;0.60;;
59854;SDS011;45732;52.850;6.896;2023-10-31T10:23:30;1.42;;;0.57;;
59854;SDS011;45732;52.850;6.896;2023-10-31T10:25:57;2.20;;;0.50;;
59854;SDS011;45732;52.850;6.896;2023-10-31T10:28:24;1.35;;;0.32;;
59854;SDS011;45732;52.850;6.896;2023-10-31T10:30:50;1.75;;;0.38;;
59854;SDS011;45732;52.850;6.896;2023-10-31T10:33:17;1.75;;;0.30;;
59854;SDS011;45732;52.850;6.896;2023-10-31T10:35:43;1.23;;;0.32;;
59854;SDS011;45732;52.850;6.896;2023-10-31T10:38:13;1.63;;;0.40;;
59854;SDS011;45732;52.850;6.896;2023-10-31T10:40:43;2.05;;;0.50;;
59854;SDS011;45732;52.850;6.896;2023-10-31T10:43:18;2.08;;;0.40;;
59854;SDS011;45732;52.850;6.896;2023-10-31T10:45:56;4.60;;;0.95;;
59854;SDS011;45732;52.850;6.896;2023-10-31T10:48:24;3.50;;;0.88;;
59854;SDS011;45732;52.850;6.896;2023-10-31T10:50:52;2.28;;;0.45;;
59854;SDS011;45732;52.850;6.896;2023-10-31T10:53:44;2.40;;;0.63;;
59854;SDS011;45732;52.850;6.896;2023-10-31T10:56:19;2.65;;;0.60;;
59854;SDS011;45732;52.850;6.896;2023-10-31T10:58:55;3.20;;;0.73;;
59854;SDS011;45732;52.850;6.896;2023-10-31T11:01:26;2.08;;;0.57;;
59854;SDS011;45732;52.850;6.896;2023-10-31T11:03:53;3.45;;;0.60;;
59854;SDS011;45732;52.850;6.896;2023-10-31T11:06:20;3.92;;;0.63;;
59854;SDS011;45732;52.850;6.896;2023-10-31T11:08:47;4.07;;;0.43;;
59854;SDS011;45732;52.850;6.896;2023-10-31T11:11:12;3.50;;;0.75;;
59854;SDS011;45732;52.850;6.896;2023-10-31T11:13:42;6.97;;;0.80;;
59854;SDS011;45732;52.850;6.896;2023-10-31T11:16:24;3.40;;;0.73;;
59854;SDS011;45732;52.850;6.896;2023-10-31T11:19:06;5.10;;;0.82;;
59854;SDS011;45732;52.850;6.896;2023-10-31T11:21:34;3.50;;;0.60;;
59854;SDS011;45732;52.850;6.896;2023-10-31T11:24:00;3.38;;;0.60;;
59854;SDS011;45732;52.850;6.896;2023-10-31T11:26:26;4.22;;;0.52;;
59854;SDS011;45732;52.850;6.896;2023-10-31T11:29:02;4.13;;;0.70;;
59854;SDS011;45732;52.850;6.896;2023-10-31T11:31:29;4.10;;;0.80;;
59854;SDS011;45732;52.850;6.896;2023-10-31T11:33:55;4.13;;;0.60;;
59854;SDS011;45732;52.850;6.896;2023-10-31T11:36:21;6.18;;;2.20;;
59854;SDS011;45732;52.850;6.896;2023-10-31T11:38:47;3.80;;;0.60;;
59854;SDS011;45732;52.850;6.896;2023-10-31T11:41:13;6.07;;;0.70;;
59854;SDS011;45732;52.850;6.896;2023-10-31T11:46:05;2.47;;;0.47;;
59854;SDS011;45732;52.850;6.896;2023-10-31T11:48:48;3.20;;;0.52;;
59854;SDS011;45732;52.850;6.896;2023-10-31T11:51:16;4.25;;;0.60;;
59854;SDS011;45732;52.850;6.896;2023-10-31T11:53:43;2.20;;;0.50;;
59854;SDS011;45732;52.850;6.896;2023-10-31T11:56:09;5.80;;;0.73;;
59854;SDS011;45732;52.850;6.896;2023-10-31T11:58:36;4.57;;;0.77;;
59854;SDS011;45732;52.850;6.896;2023-10-31T12:01:06;13.55;;;2.00;;
59854;SDS011;45732;52.850;6.896;2023-10-31T12:03:37;4.43;;;0.70;;
59854;SDS011;45732;52.850;6.896;2023-10-31T12:06:07;4.18;;;0.60;;
59854;SDS011;45732;52.850;6.896;2023-10-31T12:08:38;3.47;;;0.75;;
59854;SDS011;45732;52.850;6.896;2023-10-31T12:11:15;5.88;;;0.98;;
59854;SDS011;45732;52.850;6.896;2023-10-31T12:13:53;5.63;;;0.80;;
59854;SDS011;45732;52.850;6.896;2023-10-31T12:16:27;4.35;;;1.00;;
59854;SDS011;45732;52.850;6.896;2023-10-31T12:18:58;3.97;;;0.55;;
59854;SDS011;45732;52.850;6.896;2023-10-31T12:24:04;3.90;;;0.50;;
59854;SDS011;45732;52.850;6.896;2023-10-31T12:26:33;4.43;;;0.88;;
59854;SDS011;45732;52.850;6.896;2023-10-31T12:29:13;5.07;;;1.10;;
59854;SDS011;45732;52.850;6.896;2023-10-31T12:31:47;3.78;;;0.70;;
59854;SDS011;45732;52.850;6.896;2023-10-31T12:34:14;13.88;;;4.22;;
59854;SDS011;45732;52.850;6.896;2023-10-31T12:36:41;4.95;;;1.08;;
59854;SDS011;45732;52.850;6.896;2023-10-31T12:39:10;4.68;;;0.75;;
59854;SDS011;45732;52.850;6.896;2023-10-31T12:41:37;3.47;;;0.75;;
59854;SDS011;45732;52.850;6.896;2023-10-31T12:44:04;3.75;;;0.65;;
59854;SDS011;45732;52.850;6.896;2023-10-31T12:46:31;4.47;;;1.00;;
59854;SDS011;45732;52.850;6.896;2023-10-31T12:48:58;6.65;;;2.30;;
59854;SDS011;45732;52.850;6.896;2023-10-31T12:51:24;2.88;;;1.52;;
59854;SDS011;45732;52.850;6.896;2023-10-31T12:53:50;2.90;;;1.10;;
59854;SDS011;45732;52.850;6.896;2023-10-31T12:59:05;2.75;;;0.70;;
59854;SDS011;45732;52.850;6.896;2023-10-31T13:01:36;2.78;;;0.60;;
59854;SDS011;45732;52.850;6.896;2023-10-31T13:04:02;2.70;;;0.73;;
59854;SDS011;45732;52.850;6.896;2023-10-31T13:06:29;3.45;;;0.82;;
59854;SDS011;45732;52.850;6.896;2023-10-31T13:08:55;2.00;;;0.57;;
59854;SDS011;45732;52.850;6.896;2023-10-31T13:11:22;3.25;;;0.70;;
59854;SDS011;45732;52.850;6.896;2023-10-31T13:13:51;4.43;;;0.82;;
59854;SDS011;45732;52.850;6.896;2023-10-31T13:16:18;3.80;;;0.70;;
59854;SDS011;45732;52.850;6.896;2023-10-31T13:18:44;2.63;;;0.43;;
59854;SDS011;45732;52.850;6.896;2023-10-31T13:21:10;3.55;;;0.60;;
59854;SDS011;45732;52.850;6.896;2023-10-31T13:23:37;2.50;;;0.50;;
59854;SDS011;45732;52.850;6.896;2023-10-31T13:26:03;4.10;;;0.57;;
59854;SDS011;45732;52.850;6.896;2023-10-31T13:28:29;7.18;;;0.70;;
59854;SDS011;45732;52.850;6.896;2023-10-31T13:30:57;3.40;;;0.70;;
59854;SDS011;45732;52.850;6.896;2023-10-31T13:33:23;2.10;;;0.60;;
59854;SDS011;45732;52.850;6.896;2023-10-31T13:35:50;3.35;;;0.63;;
59854;SDS011;45732;52.850;6.896;2023-10-31T13:38:15;3.80;;;0.63;;
59854;SDS011;45732;52.850;6.896;2023-10-31T13:40:41;2.45;;;0.47;;
59854;SDS011;45732;52.850;6.896;2023-10-31T13:43:07;2.42;;;0.60;;
59854;SDS011;45732;52.850;6.896;2023-10-31T13:45:33;4.32;;;0.60;;
59854;SDS011;45732;52.850;6.896;2023-10-31T13:47:59;7.63;;;0.73;;
59854;SDS011;45732;52.850;6.896;2023-10-31T13:50:24;5.13;;;0.80;;
59854;SDS011;45732;52.850;6.896;2023-10-31T13:52:53;4.05;;;0.80;;
59854;SDS011;45732;52.850;6.896;2023-10-31T13:55:19;3.10;;;0.68;;
59854;SDS011;45732;52.850;6.896;2023-10-31T13:57:44;2.72;;;0.70;;
59854;SDS011;45732;52.850;6.896;2023-10-31T14:00:10;5.75;;;0.90;;
59854;SDS011;45732;52.850;6.896;2023-10-31T14:02:36;4.60;;;0.70;;
59854;SDS011;45732;52.850;6.896;2023-10-31T14:05:03;4.75;;;1.02;;
59854;SDS011;45732;52.850;6.896;2023-10-31T14:07:29;3.53;;;0.77;;
59854;SDS011;45732;52.850;6.896;2023-10-31T14:09:55;2.63;;;0.73;;
59854;SDS011;45732;52.850;6.896;2023-10-31T14:12:22;3.88;;;0.77;;
59854;SDS011;45732;52.850;6.896;2023-10-31T14:14:48;3.50;;;0.63;;
59854;SDS011;45732;52.850;6.896;2023-10-31T14:17:17;4.25;;;0.60;;
59854;SDS011;45732;52.850;6.896;2023-10-31T14:19:43;5.75;;;0.90;;
59854;SDS011;45732;52.850;6.896;2023-10-31T14:22:11;3.13;;;0.77;;
59854;SDS011;45732;52.850;6.896;2023-10-31T14:24:37;3.50;;;0.70;;
59854;SDS011;45732;52.850;6.896;2023-10-31T14:27:03;2.90;;;0.73;;
59854;SDS011;45732;52.850;6.896;2023-10-31T14:29:29;3.25;;;0.85;;
59854;SDS011;45732;52.850;6.896;2023-10-31T14:31:54;3.67;;;0.70;;
59854;SDS011;45732;52.850;6.896;2023-10-31T14:34:22;2.90;;;0.70;;
59854;SDS011;45732;52.850;6.896;2023-10-31T14:36:48;3.45;;;0.60;;
59854;SDS011;45732;52.850;6.896;2023-10-31T14:39:14;3.95;;;0.80;;
59854;SDS011;45732;52.850;6.896;2023-10-31T14:41:40;3.78;;;0.65;;
59854;SDS011;45732;52.850;6.896;2023-10-31T14:44:06;4.32;;;0.73;;
59854;SDS011;45732;52.850;6.896;2023-10-31T14:46:33;1.25;;;0.40;;
59854;SDS011;45732;52.850;6.896;2023-10-31T14:48:59;2.92;;;0.52;;